Terminal Aerodrome Forecast
Issued by NWS Charleston, WV

Current Version | Previous Version | Text Only | Print | Product List | Glossary Off
Versions: 1 2 3 4 5 6 7 8 9 10 11 12 13 14 15 16 17 18 19 20 21 22 23 24 25 26 27

000
FTUS41 KRLX 050549
TAFPKB
TAF
KPKB 050549Z 0506/0606 24009KT P6SM OVC008
      TEMPO 0506/0509 OVC010
     FM050900 25008KT P6SM OVC010
      TEMPO 0511/0515 OVC012
     FM051500 28005KT P6SM OVC025
     FM052000 VRB03KT P6SM BKN250=

USA.gov is the U.S. government's official web portal to all federal, state and local government web resources and services.